Time;durP1;ratioP1;P1;durP2;ratioP2;P2;SDS_P1;SDS_P2;PMS_P1;PMS_P2;Temp;Humidity;BMP_temperature;BMP_pressure;BME280_temperature;BME280_humidity;BME280_pressure;Samples;Min_cycle;Max_cycle;Signal;HPM_P1;HPM_P2
2023/07/14 00:01:36;;;;;;;2.73;2.17;;;19.90;99.90;;;;;;5068035;28;20540;-75
2023/07/14 00:04:02;;;;;;;5.30;2.60;;;20.00;99.90;;;;;;5052099;28;20469;-76
2023/07/14 00:06:30;;;;;;;9.43;2.70;;;20.00;99.90;;;;;;5051716;28;20457;-76
2023/07/14 00:08:57;;;;;;;4.13;2.83;;;20.00;99.90;;;;;;5050655;28;20461;-76
2023/07/14 00:11:25;;;;;;;2.80;2.33;;;19.90;99.90;;;;;;5050876;28;20497;-76
2023/07/14 00:13:54;;;;;;;2.40;2.20;;;20.00;99.90;;;;;;5053887;28;20457;-76
2023/07/14 00:16:23;;;;;;;3.30;3.00;;;19.90;99.90;;;;;;5054464;28;20535;-76
2023/07/14 00:18:50;;;;;;;6.63;2.53;;;19.90;99.90;;;;;;5053832;28;20508;-77
2023/07/14 00:21:19;;;;;;;2.53;2.33;;;19.90;99.90;;;;;;5054152;28;20486;-77
2023/07/14 00:23:47;;;;;;;2.93;2.53;;;19.80;99.90;;;;;;5053125;28;20463;-75
2023/07/14 00:26:16;;;;;;;3.10;2.40;;;19.80;99.90;;;;;;5054101;28;20454;-75
2023/07/14 00:28:43;;;;;;;4.13;2.70;;;19.70;99.90;;;;;;5053979;28;20973;-76
2023/07/14 00:31:14;;;;;;;3.27;2.70;;;19.70;99.90;;;;;;5053881;28;20450;-76
2023/07/14 00:33:41;;;;;;;2.87;2.67;;;19.70;99.90;;;;;;5053802;28;20467;-76
2023/07/14 00:36:09;;;;;;;3.00;2.70;;;19.70;99.90;;;;;;5053755;28;20460;-75
2023/07/14 00:38:36;;;;;;;3.00;2.70;;;19.70;99.90;;;;;;5053316;28;20823;-76
2023/07/14 00:41:07;;;;;;;3.73;2.70;;;19.70;99.90;;;;;;5053128;28;20484;-76
2023/07/14 00:43:35;;;;;;;2.50;2.23;;;19.60;99.90;;;;;;5053487;28;20826;-76
2023/07/14 00:46:04;;;;;;;3.77;2.50;;;19.60;99.90;;;;;;5053589;28;20470;-76
2023/07/14 00:48:32;;;;;;;2.67;2.47;;;19.60;99.90;;;;;;5053756;28;20445;-76
2023/07/14 00:51:03;;;;;;;3.43;2.80;;;19.60;99.90;;;;;;5053809;28;20790;-76
2023/07/14 00:53:33;;;;;;;4.90;2.60;;;19.60;99.90;;;;;;5053255;28;20913;-76
2023/07/14 00:56:32;;;;;;;3.00;2.40;;;19.50;99.90;;;;;;5058092;28;20477;-76
2023/07/14 00:59:00;;;;;;;2.90;2.60;;;19.50;99.90;;;;;;5055052;28;20444;-76
2023/07/14 01:01:31;;;;;;;4.27;2.60;;;19.50;99.90;;;;;;5053206;28;20834;-76
2023/07/14 01:03:59;;;;;;;2.60;2.40;;;19.50;99.90;;;;;;5052417;28;20477;-76
2023/07/14 01:06:30;;;;;;;3.90;2.40;;;19.40;99.90;;;;;;5052559;28;20445;-76
2023/07/14 01:09:00;;;;;;;3.83;2.60;;;19.70;99.90;;;;;;5052529;28;20476;-75
2023/07/14 01:11:32;;;;;;;2.80;2.60;;;19.50;99.90;;;;;;5052629;28;20443;-77
2023/07/14 01:14:04;;;;;;;5.37;2.50;;;19.50;99.90;;;;;;5052668;28;20459;-75
2023/07/14 01:16:32;;;;;;;3.17;2.70;;;19.50;99.90;;;;;;5052763;28;20501;-77
2023/07/14 01:19:00;;;;;;;3.70;2.40;;;19.50;99.90;;;;;;5052746;28;20442;-76
2023/07/14 01:21:27;;;;;;;4.03;2.33;;;19.40;99.90;;;;;;5052283;28;20562;-76
2023/07/14 01:24:06;;;;;;;5.90;2.93;;;19.40;99.90;;;;;;5051636;28;20469;-75
2023/07/14 01:26:54;;;;;;;2.60;2.40;;;19.60;99.90;;;;;;5052577;28;20447;-75
2023/07/14 01:29:21;;;;;;;3.43;2.47;;;19.40;99.90;;;;;;5052182;28;20961;-76
2023/07/14 01:31:49;;;;;;;3.50;2.70;;;19.30;99.90;;;;;;5051988;28;20446;-76
2023/07/14 01:34:16;;;;;;;2.93;2.40;;;19.20;99.90;;;;;;5052923;28;20471;-76
2023/07/14 01:36:44;;;;;;;4.53;2.90;;;19.20;99.90;;;;;;5052626;28;20444;-76
2023/07/14 01:39:11;;;;;;;2.90;2.70;;;19.20;99.90;;;;;;5053546;28;20826;-76
2023/07/14 01:41:38;;;;;;;3.80;2.50;;;19.00;99.90;;;;;;5054010;28;20478;-76
2023/07/14 01:44:07;;;;;;;3.33;2.63;;;18.90;99.90;;;;;;5053846;28;20514;-75
2023/07/14 01:46:34;;;;;;;3.00;2.30;;;19.00;99.90;;;;;;5055590;28;20457;-75
2023/07/14 01:49:13;;;;;;;3.90;2.67;;;18.90;99.90;;;;;;5057642;28;20438;-76
2023/07/14 01:51:43;;;;;;;3.40;2.70;;;18.90;99.90;;;;;;5055373;28;20435;-75
2023/07/14 01:54:19;;;;;;;3.07;2.30;;;18.90;99.90;;;;;;5054339;28;20825;-76
2023/07/14 01:56:47;;;;;;;3.07;2.73;;;18.90;99.90;;;;;;5053808;28;20441;-76
2023/07/14 01:59:20;;;;;;;3.03;2.43;;;18.90;99.90;;;;;;5053347;28;20456;-76
2023/07/14 02:01:48;;;;;;;3.60;2.70;;;18.80;99.90;;;;;;5053999;28;20482;-75
2023/07/14 02:04:21;;;;;;;4.37;3.00;;;18.80;99.90;;;;;;5053025;28;20469;-76
2023/07/14 02:06:48;;;;;;;3.00;2.80;;;18.80;99.90;;;;;;5054212;28;21112;-75
2023/07/14 02:09:17;;;;;;;2.77;2.57;;;18.80;99.90;;;;;;5054404;28;20513;-75
2023/07/14 02:11:46;;;;;;;3.70;3.00;;;18.70;99.90;;;;;;5060651;28;20853;-75
2023/07/14 02:14:19;;;;;;;2.97;2.67;;;18.70;99.90;;;;;;5067929;28;20467;-75
2023/07/14 02:16:47;;;;;;;2.50;2.37;;;18.60;99.90;;;;;;5057971;28;20443;-76
2023/07/14 02:19:20;;;;;;;5.13;2.87;;;18.60;99.90;;;;;;5057029;28;20477;-75
2023/07/14 02:21:47;;;;;;;3.57;3.07;;;18.70;99.90;;;;;;5060853;28;20468;-74
2023/07/14 02:24:20;;;;;;;3.40;2.67;;;18.50;99.90;;;;;;5072211;28;20508;-75
2023/07/14 02:26:48;;;;;;;4.83;2.73;;;18.50;99.90;;;;;;5066083;28;20426;-75
2023/07/14 02:29:15;;;;;;;3.53;3.17;;;18.50;99.90;;;;;;5052316;28;20477;-75
2023/07/14 02:31:49;;;;;;;6.53;2.93;;;18.40;99.90;;;;;;5051806;28;20445;-75
2023/07/14 02:34:16;;;;;;;4.90;3.40;;;18.50;99.90;;;;;;5051143;28;20977;-75
2023/07/14 02:36:56;;;;;;;4.80;3.30;;;18.50;99.90;;;;;;5051277;28;20455;-76
2023/07/14 02:39:23;;;;;;;8.10;3.80;;;18.50;99.90;;;;;;5051326;28;20547;-75
2023/07/14 02:41:53;;;;;;;5.37;3.53;;;18.40;99.90;;;;;;5050821;28;21007;-76
2023/07/14 02:44:20;;;;;;;8.20;3.40;;;18.40;99.90;;;;;;5050692;28;20466;-76
2023/07/14 02:46:53;;;;;;;5.00;3.10;;;18.40;99.90;;;;;;5051118;28;20450;-75
2023/07/14 02:49:20;;;;;;;4.40;3.47;;;18.20;99.90;;;;;;5051253;28;20450;-75
2023/07/14 02:51:47;;;;;;;4.00;3.10;;;18.20;99.90;;;;;;5052414;28;20452;-76
2023/07/14 02:54:14;;;;;;;3.73;3.40;;;18.20;99.90;;;;;;5059122;28;20569;-75
2023/07/14 02:56:40;;;;;;;4.30;3.37;;;18.20;99.90;;;;;;5064331;28;20571;-75
2023/07/14 02:59:11;;;;;;;3.40;3.10;;;18.10;99.90;;;;;;5054693;28;20451;-75
2023/07/14 03:01:37;;;;;;;4.57;3.20;;;18.10;99.90;;;;;;5051821;28;20483;-75
2023/07/14 03:04:06;;;;;;;5.57;3.67;;;18.20;99.90;;;;;;5051343;28;20477;-76
2023/07/14 03:06:34;;;;;;;4.80;3.93;;;18.10;99.90;;;;;;5051168;28;20812;-76
2023/07/14 03:09:01;;;;;;;4.60;3.77;;;18.00;99.90;;;;;;5051201;28;20449;-76
2023/07/14 03:11:27;;;;;;;5.73;3.43;;;18.20;99.90;;;;;;5051007;28;20809;-76
2023/07/14 03:13:54;;;;;;;4.73;3.70;;;18.00;99.90;;;;;;5050591;28;20524;-76
2023/07/14 03:16:21;;;;;;;3.70;3.30;;;18.00;99.90;;;;;;5050619;28;20938;-76
2023/07/14 03:18:48;;;;;;;5.10;3.27;;;18.00;99.90;;;;;;5051196;28;20507;-75
2023/07/14 03:21:16;;;;;;;3.80;3.40;;;18.00;99.90;;;;;;5050471;28;20887;-75
2023/07/14 03:23:42;;;;;;;5.73;3.20;;;18.00;99.90;;;;;;5050294;28;20516;-76
2023/07/14 03:26:10;;;;;;;6.00;3.63;;;18.00;99.90;;;;;;5050769;28;20446;-75
2023/07/14 03:28:37;;;;;;;4.37;3.73;;;17.90;99.90;;;;;;5050552;28;20445;-75
2023/07/14 03:31:05;;;;;;;4.27;3.67;;;17.60;99.90;;;;;;5050771;28;20450;-75
2023/07/14 03:33:33;;;;;;;6.90;4.50;;;17.60;99.90;;;;;;5050544;28;20455;-76
2023/07/14 03:36:02;;;;;;;3.53;3.23;;;17.70;99.90;;;;;;5050495;28;20456;-76
2023/07/14 03:38:30;;;;;;;4.80;3.40;;;17.60;99.90;;;;;;5050877;28;20503;-75
2023/07/14 03:40:57;;;;;;;8.40;3.60;;;17.60;99.90;;;;;;5051111;28;20452;-76
2023/07/14 03:43:23;;;;;;;4.20;3.80;;;17.70;99.90;;;;;;5053614;28;20543;-76
2023/07/14 03:45:50;;;;;;;5.00;3.50;;;17.70;99.90;;;;;;5054220;28;20937;-76
2023/07/14 03:48:17;;;;;;;5.97;3.63;;;17.60;99.90;;;;;;5057559;28;20957;-76
2023/07/14 03:50:43;;;;;;;4.97;3.90;;;17.60;99.90;;;;;;5058126;28;20453;-76
2023/07/14 03:53:10;;;;;;;3.80;3.30;;;17.60;99.90;;;;;;5058654;28;20446;-75
2023/07/14 03:55:38;;;;;;;6.57;3.70;;;17.60;99.90;;;;;;5056564;28;20441;-75
2023/07/14 03:58:05;;;;;;;8.10;3.33;;;17.60;99.90;;;;;;5054836;28;20448;-75
2023/07/14 04:00:33;;;;;;;4.77;3.60;;;17.40;99.90;;;;;;5055238;28;20452;-75
2023/07/14 04:03:00;;;;;;;7.47;3.87;;;17.40;99.90;;;;;;5056004;28;20584;-76
2023/07/14 04:05:27;;;;;;;6.43;4.30;;;17.50;99.90;;;;;;5057193;28;20960;-76
2023/07/14 04:07:54;;;;;;;4.87;3.80;;;17.40;99.90;;;;;;5055175;28;20461;-75
2023/07/14 04:10:21;;;;;;;5.13;3.97;;;17.30;99.90;;;;;;5054873;28;20964;-76
2023/07/14 04:12:50;;;;;;;3.70;3.03;;;17.40;99.90;;;;;;5054620;28;20461;-75
2023/07/14 04:15:17;;;;;;;7.90;4.03;;;17.60;99.90;;;;;;5054850;28;20539;-76
2023/07/14 04:17:44;;;;;;;5.60;4.40;;;17.50;99.90;;;;;;5054674;28;20946;-75
2023/07/14 04:20:12;;;;;;;6.07;3.77;;;17.60;99.90;;;;;;5054771;28;20449;-75
2023/07/14 04:22:38;;;;;;;4.33;3.90;;;17.50;99.90;;;;;;5053864;28;20485;-75
2023/07/14 04:25:07;;;;;;;4.77;3.47;;;17.50;99.90;;;;;;5054600;28;20471;-76
2023/07/14 04:27:36;;;;;;;4.20;3.90;;;17.60;99.90;;;;;;5054316;28;20452;-76
2023/07/14 04:30:07;;;;;;;6.10;4.20;;;17.60;99.90;;;;;;5055100;28;20446;-75
2023/07/14 04:32:33;;;;;;;5.57;4.17;;;17.60;99.90;;;;;;5053865;28;20438;-75
2023/07/14 04:34:59;;;;;;;4.10;3.70;;;17.60;99.90;;;;;;5053902;28;21031;-75
2023/07/14 04:37:26;;;;;;;4.13;3.40;;;17.60;99.90;;;;;;5054219;28;20543;-76
2023/07/14 04:39:53;;;;;;;4.00;3.57;;;17.60;99.90;;;;;;5054033;28;20450;-75
2023/07/14 04:42:19;;;;;;;5.93;4.33;;;17.70;99.90;;;;;;5053525;28;20496;-76
2023/07/14 04:44:46;;;;;;;5.03;4.00;;;17.50;99.90;;;;;;5054263;28;20466;-75
2023/07/14 04:47:15;;;;;;;4.67;3.63;;;17.60;99.90;;;;;;5054535;28;20453;-75
2023/07/14 04:49:42;;;;;;;6.07;4.00;;;17.60;99.90;;;;;;5054611;28;20609;-76
2023/07/14 04:52:09;;;;;;;4.70;4.00;;;17.70;99.90;;;;;;5055017;28;20453;-75
2023/07/14 04:54:36;;;;;;;5.17;4.50;;;17.60;99.90;;;;;;5059448;28;20466;-75
2023/07/14 04:57:03;;;;;;;5.77;4.40;;;17.60;99.90;;;;;;5062680;28;20809;-75
2023/07/14 04:59:31;;;;;;;6.20;4.33;;;17.70;99.90;;;;;;5060284;28;20457;-75
2023/07/14 05:01:58;;;;;;;6.90;4.43;;;17.80;99.90;;;;;;5061552;28;20453;-75
2023/07/14 05:04:29;;;;;;;6.13;5.00;;;17.80;99.90;;;;;;5058297;28;21116;-76
2023/07/14 05:06:56;;;;;;;5.37;4.83;;;17.90;99.90;;;;;;5058010;28;20880;-75
2023/07/14 05:09:22;;;;;;;5.27;4.87;;;17.80;99.90;;;;;;5062009;28;20434;-74
2023/07/14 05:11:49;;;;;;;7.53;4.70;;;17.70;99.90;;;;;;5058819;28;20438;-76
2023/07/14 05:14:16;;;;;;;4.80;4.40;;;17.80;99.90;;;;;;5056058;28;20474;-75
2023/07/14 05:16:42;;;;;;;6.80;4.23;;;17.90;99.90;;;;;;5057706;28;20449;-76
2023/07/14 05:19:09;;;;;;;8.30;4.37;;;17.80;99.90;;;;;;5054205;28;20847;-75
2023/07/14 05:21:37;;;;;;;8.03;6.60;;;17.80;99.90;;;;;;5062222;28;20839;-76
2023/07/14 05:24:04;;;;;;;4.70;4.30;;;17.90;99.90;;;;;;5054320;28;20486;-77
2023/07/14 05:26:31;;;;;;;7.37;4.13;;;18.10;99.90;;;;;;5055857;28;20857;-76
2023/07/14 05:28:58;;;;;;;5.67;3.90;;;18.10;99.90;;;;;;5054480;28;20450;-75
2023/07/14 05:31:25;;;;;;;5.53;4.93;;;18.20;99.90;;;;;;5054787;28;20807;-77
2023/07/14 05:33:51;;;;;;;5.03;4.23;;;18.30;99.90;;;;;;5065367;28;20514;-77
2023/07/14 05:36:18;;;;;;;5.10;3.93;;;18.30;99.90;;;;;;5056315;28;20468;-75
2023/07/14 05:38:46;;;;;;;5.00;4.50;;;18.40;99.90;;;;;;5054319;28;20454;-76
2023/07/14 05:41:13;;;;;;;5.77;5.20;;;18.40;99.90;;;;;;5054536;28;20461;-77
2023/07/14 05:43:39;;;;;;;7.33;4.93;;;18.50;99.90;;;;;;5054559;28;20539;-76
2023/07/14 05:46:06;;;;;;;4.90;4.50;;;18.50;99.90;;;;;;5054434;28;20923;-75
2023/07/14 05:48:33;;;;;;;7.97;4.70;;;18.70;99.90;;;;;;5058179;28;20448;-77
2023/07/14 05:51:00;;;;;;;5.23;4.73;;;18.70;99.90;;;;;;5063293;28;20441;-76
2023/07/14 05:53:27;;;;;;;6.83;5.20;;;18.80;99.90;;;;;;5060041;28;20496;-76
2023/07/14 05:55:57;;;;;;;10.27;5.13;;;18.90;99.90;;;;;;5054048;28;20945;-77
2023/07/14 05:58:24;;;;;;;9.40;4.93;;;19.10;99.90;;;;;;5053215;28;20434;-76
2023/07/14 06:00:54;;;;;;;7.53;4.80;;;19.10;99.90;;;;;;5053025;28;20445;-76
2023/07/14 06:03:21;;;;;;;4.83;4.30;;;18.90;99.90;;;;;;5052350;28;20504;-77
2023/07/14 06:05:49;;;;;;;7.27;4.30;;;18.90;99.90;;;;;;5053393;28;20445;-78
2023/07/14 06:08:18;;;;;;;6.40;4.43;;;19.00;99.90;;;;;;5052897;28;21135;-78
2023/07/14 06:10:46;;;;;;;6.20;4.50;;;19.30;99.90;;;;;;5053078;28;20476;-78
2023/07/14 06:13:14;;;;;;;4.57;3.80;;;19.00;99.90;;;;;;5052305;28;20988;-78
2023/07/14 06:15:45;;;;;;;4.73;4.33;;;19.00;99.90;;;;;;5052809;28;20477;-79
2023/07/14 06:18:11;;;;;;;4.30;3.93;;;18.90;99.90;;;;;;5052717;28;20452;-79
2023/07/14 06:20:38;;;;;;;4.20;3.83;;;19.10;99.90;;;;;;5052941;28;20450;-78
2023/07/14 06:23:05;;;;;;;10.90;4.97;;;19.10;99.90;;;;;;5052593;28;20511;-79
2023/07/14 06:25:31;;;;;;;5.93;4.73;;;19.20;99.90;;;;;;5052063;28;20508;-78
2023/07/14 06:27:58;;;;;;;5.13;4.50;;;19.30;99.90;;;;;;5053430;28;20473;-79
2023/07/14 06:30:26;;;;;;;5.20;4.40;;;19.50;99.90;;;;;;5052587;28;20944;-78
2023/07/14 06:32:53;;;;;;;5.73;4.67;;;19.70;99.90;;;;;;5052870;28;20509;-79
2023/07/14 06:35:20;;;;;;;8.17;5.00;;;19.90;99.90;;;;;;5052855;28;20527;-79
2023/07/14 06:37:47;;;;;;;6.57;4.80;;;19.90;99.90;;;;;;5052388;28;20504;-77
2023/07/14 06:40:13;;;;;;;9.93;5.03;;;20.00;99.90;;;;;;5051867;28;20934;-78
2023/07/14 06:42:40;;;;;;;10.03;5.07;;;20.20;99.90;;;;;;5052410;28;20513;-78
2023/07/14 06:45:08;;;;;;;7.83;3.60;;;20.40;99.90;;;;;;5052096;28;20479;-78
2023/07/14 06:47:36;;;;;;;5.73;4.23;;;20.40;99.90;;;;;;5052075;28;20548;-78
2023/07/14 06:50:04;;;;;;;6.70;4.63;;;20.50;99.90;;;;;;5052046;28;20447;-78
2023/07/14 06:52:31;;;;;;;7.33;4.30;;;20.50;99.90;;;;;;5052433;28;20968;-79
2023/07/14 06:54:57;;;;;;;4.83;3.90;;;20.60;99.90;;;;;;5052065;28;20537;-78
2023/07/14 06:57:24;;;;;;;5.70;4.00;;;20.70;99.90;;;;;;5052525;28;20529;-78
2023/07/14 06:59:51;;;;;;;8.13;4.00;;;20.70;99.90;;;;;;5051732;28;20526;-79
2023/07/14 07:02:18;;;;;;;5.00;4.50;;;20.80;99.90;;;;;;5052440;28;20449;-78
2023/07/14 07:04:46;;;;;;;8.90;4.80;;;20.90;99.90;;;;;;5051211;28;20482;-79
2023/07/14 07:07:12;;;;;;;5.10;3.70;;;21.00;99.90;;;;;;5051921;28;20972;-78
2023/07/14 07:09:39;;;;;;;4.73;3.93;;;21.10;99.90;;;;;;5051798;28;20445;-78
2023/07/14 07:12:09;;;;;;;6.43;4.27;;;21.20;99.90;;;;;;5052371;28;20444;-78
2023/07/14 07:14:36;;;;;;;6.07;4.10;;;21.30;99.90;;;;;;5051722;28;20918;-77
2023/07/14 07:17:02;;;;;;;4.33;3.73;;;21.40;99.90;;;;;;5052029;28;20967;-78
2023/07/14 07:19:29;;;;;;;4.20;3.80;;;21.60;99.90;;;;;;5051700;28;20456;-77
2023/07/14 07:21:57;;;;;;;8.20;4.07;;;21.70;99.90;;;;;;5051317;28;20451;-77
2023/07/14 07:24:24;;;;;;;4.70;4.20;;;21.90;99.90;;;;;;5051891;28;20491;-78
2023/07/14 07:26:50;;;;;;;3.93;3.63;;;21.90;99.90;;;;;;5052366;28;20511;-77
2023/07/14 07:29:17;;;;;;;6.00;4.20;;;21.80;99.90;;;;;;5051831;28;20454;-78
2023/07/14 07:31:44;;;;;;;6.63;4.33;;;21.90;99.90;;;;;;5052015;28;20449;-78
2023/07/14 07:34:11;;;;;;;4.50;3.77;;;21.90;99.90;;;;;;5051544;28;20515;-78
2023/07/14 07:36:37;;;;;;;6.23;4.30;;;22.10;99.90;;;;;;5052060;28;20494;-78
2023/07/14 07:39:05;;;;;;;13.23;4.87;;;22.30;99.90;;;;;;5051634;28;20449;-77
2023/07/14 07:41:32;;;;;;;71.43;14.10;;;22.50;99.90;;;;;;5052120;28;20789;-78
2023/07/14 07:43:59;;;;;;;7.70;3.60;;;22.70;99.90;;;;;;5051384;28;20485;-78
2023/07/14 07:46:28;;;;;;;5.60;3.57;;;22.80;99.90;;;;;;5051432;28;20457;-77
2023/07/14 07:48:55;;;;;;;3.77;3.40;;;22.90;99.90;;;;;;5051338;28;20464;-78
2023/07/14 07:51:21;;;;;;;5.80;3.70;;;23.00;99.90;;;;;;5050860;28;20856;-78
2023/07/14 07:53:48;;;;;;;3.30;3.00;;;23.00;99.90;;;;;;5051279;28;20458;-78
2023/07/14 07:56:17;;;;;;;6.20;3.87;;;23.20;99.90;;;;;;5050910;28;20468;-78
2023/07/14 07:58:44;;;;;;;4.90;3.30;;;23.30;99.90;;;;;;5051402;28;20485;-78
2023/07/14 08:01:18;;;;;;;3.73;3.00;;;23.50;99.90;;;;;;5051043;28;20949;-77
2023/07/14 08:03:45;;;;;;;4.53;2.47;;;23.60;99.90;;;;;;5050955;28;20489;-77
2023/07/14 08:06:12;;;;;;;5.90;2.97;;;23.60;99.90;;;;;;5051089;28;20453;-77
2023/07/14 08:08:39;;;;;;;10.20;2.40;;;23.70;99.90;;;;;;5051008;28;20938;-79
2023/07/14 08:11:08;;;;;;;6.37;2.80;;;23.80;99.90;;;;;;5050768;28;20445;-78
2023/07/14 08:13:37;;;;;;;3.10;2.37;;;23.90;99.90;;;;;;5052245;28;20450;-79
2023/07/14 08:16:03;;;;;;;3.13;1.70;;;24.00;99.90;;;;;;5051009;28;20464;-78
2023/07/14 08:18:30;;;;;;;2.73;2.00;;;24.10;99.90;;;;;;5051110;28;20438;-79
2023/07/14 08:20:58;;;;;;;2.40;2.20;;;24.40;99.90;;;;;;5051244;28;20511;-78
2023/07/14 08:23:26;;;;;;;2.20;2.00;;;24.50;99.90;;;;;;5050765;28;20488;-78
2023/07/14 08:25:53;;;;;;;3.50;2.20;;;24.50;99.90;;;;;;5050837;28;20556;-78
2023/07/14 08:28:20;;;;;;;2.10;1.90;;;24.60;99.90;;;;;;5051179;28;20511;-78
2023/07/14 08:30:49;;;;;;;2.60;2.20;;;24.70;99.90;;;;;;5051361;28;20449;-80
2023/07/14 08:33:16;;;;;;;4.50;2.23;;;24.80;99.90;;;;;;5060189;28;20441;-78
2023/07/14 08:35:43;;;;;;;3.90;1.90;;;24.70;99.90;;;;;;5065062;28;20471;-77
2023/07/14 08:38:10;;;;;;;2.30;1.70;;;24.70;99.90;;;;;;5057423;28;20468;-78
2023/07/14 08:40:45;;;;;;;2.20;2.07;;;24.80;99.90;;;;;;5054503;28;20481;-78
2023/07/14 08:43:29;;;;;;;3.33;2.30;;;25.00;99.90;;;;;;5056437;28;20528;-77
2023/07/14 08:46:07;;;;;;;2.30;2.10;;;25.30;99.90;;;;;;5061381;28;20441;-78
2023/07/14 08:48:38;;;;;;;3.20;2.10;;;25.30;99.90;;;;;;5056336;28;20445;-79
2023/07/14 08:51:16;;;;;;;2.63;1.90;;;25.50;99.90;;;;;;5055497;28;20890;-79
2023/07/14 08:53:49;;;;;;;2.27;1.93;;;25.50;99.90;;;;;;5054615;28;20469;-79
2023/07/14 08:56:25;;;;;;;3.17;2.90;;;25.60;99.90;;;;;;5056871;28;20431;-80
2023/07/14 08:58:54;;;;;;;3.00;2.00;;;25.90;99.40;;;;;;5060314;28;20521;-79
2023/07/14 09:01:36;;;;;;;3.60;2.40;;;25.90;99.10;;;;;;5060282;28;20474;-79
2023/07/14 09:04:11;;;;;;;2.40;2.10;;;25.90;99.20;;;;;;5059835;28;20477;-80
2023/07/14 09:06:40;;;;;;;3.30;2.40;;;26.30;99.20;;;;;;5059064;28;20544;-79
2023/07/14 09:09:17;;;;;;;2.47;2.20;;;26.40;99.10;;;;;;5058040;28;20457;-79
2023/07/14 09:11:55;;;;;;;5.13;2.23;;;26.40;98.90;;;;;;5058693;28;20445;-78
2023/07/14 09:14:48;;;;;;;4.30;2.10;;;26.40;98.60;;;;;;5059448;28;20494;-79
2023/07/14 09:17:26;;;;;;;4.10;2.60;;;26.40;98.70;;;;;;5059904;28;20457;-80
2023/07/14 09:20:23;;;;;;;4.03;2.50;;;26.40;99.00;;;;;;5059156;28;20430;-79
2023/07/14 09:22:58;;;;;;;3.00;2.40;;;26.40;98.20;;;;;;5060441;28;20541;-80
2023/07/14 09:25:32;;;;;;;3.40;2.43;;;26.40;98.40;;;;;;5059060;28;20480;-79
2023/07/14 09:28:03;;;;;;;3.57;2.27;;;26.50;98.10;;;;;;5058540;28;20450;-78
2023/07/14 09:30:35;;;;;;;2.10;1.93;;;26.60;97.80;;;;;;5058233;28;20920;-79
2023/07/14 09:33:06;;;;;;;6.80;2.40;;;26.70;97.80;;;;;;5058804;28;20497;-78
2023/07/14 09:35:34;;;;;;;2.13;2.03;;;26.80;97.80;;;;;;5061788;28;20445;-80
2023/07/14 09:38:13;;;;;;;3.63;2.23;;;26.90;97.70;;;;;;5061136;28;20473;-79
2023/07/14 09:40:47;;;;;;;2.37;2.03;;;27.10;96.90;;;;;;5061777;28;20485;-78
2023/07/14 09:43:18;;;;;;;3.60;2.30;;;27.10;96.70;;;;;;5061982;28;20476;-78
2023/07/14 09:45:53;;;;;;;5.10;2.33;;;27.20;96.50;;;;;;5063788;28;20426;-80
2023/07/14 09:48:52;;;;;;;3.67;1.87;;;27.20;96.10;;;;;;5062032;28;20446;-78
2023/07/14 09:55:02;;;;;;;2.70;2.50;;;27.50;96.20;;;;;;5060919;28;20601;-77
2023/07/14 09:57:53;;;;;;;3.50;2.30;;;27.50;95.50;;;;;;5049393;28;20469;-79
2023/07/14 10:00:45;;;;;;;3.90;2.30;;;27.50;95.50;;;;;;5064099;28;20442;-80
2023/07/14 10:03:46;;;;;;;5.90;2.30;;;27.50;94.90;;;;;;5068540;28;20449;-79
2023/07/14 10:06:47;;;;;;;2.87;2.27;;;27.30;94.90;;;;;;5066813;28;20438;-79
2023/07/14 10:09:31;;;;;;;2.40;2.00;;;27.40;93.50;;;;;;5064908;28;20429;-79
2023/07/14 10:12:14;;;;;;;2.50;2.30;;;27.40;93.00;;;;;;5063341;28;20460;-81
2023/07/14 10:15:30;;;;;;;3.50;2.50;;;27.50;92.90;;;;;;5059828;28;20477;-80
2023/07/14 10:18:08;;;;;;;5.53;2.63;;;27.60;92.30;;;;;;5060063;28;20468;-80
2023/07/14 10:24:27;;;;;;;2.10;1.90;;;27.60;92.00;;;;;;5093494;22;20517;-81
2023/07/14 10:37:03;;;;;;;3.70;2.27;;;27.60;91.00;;;;;;5052153;28;20430;-80
2023/07/14 10:39:52;;;;;;;2.03;1.93;;;27.70;90.70;;;;;;5065182;28;20464;-80
2023/07/14 10:42:45;;;;;;;3.00;2.20;;;27.70;90.50;;;;;;5065536;28;20480;-81
2023/07/14 10:45:32;;;;;;;2.03;1.83;;;27.90;90.50;;;;;;5063909;28;20492;-79
2023/07/14 10:48:19;;;;;;;3.40;2.37;;;28.10;89.10;;;;;;5064692;28;20450;-79
2023/07/14 10:51:06;;;;;;;2.40;1.70;;;28.30;88.40;;;;;;5066297;28;20446;-79
2023/07/14 10:54:36;;;;;;;1.73;1.63;;;28.40;88.30;;;;;;5062525;28;20473;-79
2023/07/14 10:57:14;;;;;;;3.37;2.57;;;28.30;87.60;;;;;;4978757;28;20449;-76
2023/07/14 10:59:50;;;;;;;2.10;1.90;;;28.40;86.40;;;;;;5031665;28;20453;-78
2023/07/14 11:02:22;;;;;;;2.17;1.97;;;28.40;85.30;;;;;;5059227;28;20449;-78
2023/07/14 11:04:58;;;;;;;3.90;2.27;;;28.40;86.40;;;;;;5061823;28;20478;-80
2023/07/14 11:07:30;;;;;;;2.80;2.37;;;28.50;85.90;;;;;;5062148;28;20445;-79
2023/07/14 11:10:02;;;;;;;7.50;7.00;;;28.30;85.90;;;;;;5062889;28;20516;-77
2023/07/14 11:12:43;;;;;;;2.73;2.30;;;28.60;83.90;;;;;;5062664;28;20496;-79
2023/07/14 11:15:24;;;;;;;4.33;1.97;;;28.50;83.60;;;;;;5063482;28;20486;-79
2023/07/14 11:17:58;;;;;;;2.37;2.17;;;28.50;83.60;;;;;;5081054;28;20932;-78
2023/07/14 11:20:33;;;;;;;3.00;2.07;;;28.60;83.60;;;;;;5083170;28;20448;-80
2023/07/14 11:23:26;;;;;;;2.00;1.80;;;28.50;83.60;;;;;;5085863;28;20860;-78
2023/07/14 11:25:59;;;;;;;6.13;1.83;;;28.20;82.10;;;;;;5077280;28;20476;-80
2023/07/14 11:28:42;;;;;;;2.60;2.20;;;28.00;83.80;;;;;;5103453;28;20473;-80
2023/07/14 11:31:22;;;;;;;2.83;2.13;;;28.30;83.60;;;;;;5085448;28;20436;-77
2023/07/14 11:34:02;;;;;;;3.40;2.30;;;28.50;82.30;;;;;;5081201;28;20480;-78
2023/07/14 11:36:51;;;;;;;1.80;1.70;;;28.70;81.70;;;;;;5080794;28;20981;-77
2023/07/14 11:39:33;;;;;;;1.97;1.87;;;28.80;80.00;;;;;;5078819;28;20457;-78
2023/07/14 11:42:03;;;;;;;2.73;1.90;;;28.50;80.90;;;;;;5070826;28;20890;-78
2023/07/14 11:44:36;;;;;;;4.20;2.47;;;28.60;82.40;;;;;;5074529;28;20480;-77
2023/07/14 11:47:09;;;;;;;3.23;2.30;;;28.80;80.00;;;;;;5076656;28;20551;-78
2023/07/14 11:49:44;;;;;;;2.27;2.07;;;28.70;79.70;;;;;;5077119;28;20449;-77
2023/07/14 11:52:15;;;;;;;3.40;2.27;;;29.00;79.30;;;;;;5073511;28;20951;-78
2023/07/14 11:55:06;;;;;;;3.53;2.20;;;28.90;78.60;;;;;;5072848;28;20465;-77
2023/07/14 11:57:50;;;;;;;2.50;2.30;;;29.10;78.80;;;;;;5074370;28;20452;-79
2023/07/14 12:00:23;;;;;;;2.60;1.90;;;29.10;79.00;;;;;;5075972;28;20983;-78
2023/07/14 12:03:03;;;;;;;2.00;1.80;;;29.30;79.40;;;;;;5075329;28;20436;-76
2023/07/14 12:05:39;;;;;;;2.40;1.90;;;29.60;77.60;;;;;;5075983;28;20849;-78
2023/07/14 12:08:39;;;;;;;2.30;2.00;;;30.00;78.30;;;;;;5076765;28;20456;-78
2023/07/14 12:11:26;;;;;;;2.40;2.30;;;30.10;75.60;;;;;;5078407;28;20476;-78
2023/07/14 12:13:54;;;;;;;2.33;1.70;;;30.10;74.90;;;;;;5076674;28;21050;-79
2023/07/14 12:16:28;;;;;;;2.40;1.80;;;30.30;74.90;;;;;;5076522;28;20960;-80
2023/07/14 12:19:21;;;;;;;2.20;2.10;;;30.50;74.40;;;;;;5076763;28;20907;-78
2023/07/14 12:22:07;;;;;;;2.20;2.00;;;30.50;74.50;;;;;;5077459;28;20532;-78
2023/07/14 12:24:47;;;;;;;2.80;2.33;;;30.80;75.20;;;;;;5076983;28;21041;-78
2023/07/14 12:27:29;;;;;;;2.37;2.10;;;30.80;73.30;;;;;;5077325;28;20874;-77
2023/07/14 12:30:17;;;;;;;2.20;2.10;;;30.90;71.20;;;;;;5078556;28;20452;-80
2023/07/14 12:33:01;;;;;;;2.93;2.10;;;30.80;71.00;;;;;;5079530;28;20465;-79
2023/07/14 12:35:42;;;;;;;3.83;2.27;;;30.60;70.60;;;;;;5078212;28;20485;-78
2023/07/14 12:38:19;;;;;;;2.93;2.23;;;29.90;72.60;;;;;;5081282;28;20540;-78
2023/07/14 12:40:49;;;;;;;2.50;2.00;;;30.50;72.30;;;;;;5077962;28;20951;-78
2023/07/14 12:43:42;;;;;;;2.70;2.23;;;30.80;69.90;;;;;;5078513;28;20495;-78
2023/07/14 12:46:29;;;;;;;3.47;2.17;;;30.80;70.10;;;;;;5077395;28;20991;-77
2023/07/14 12:49:09;;;;;;;2.07;1.93;;;31.00;69.70;;;;;;5058931;28;21036;-81
2023/07/14 12:51:42;;;;;;;2.60;2.40;;;31.20;69.30;;;;;;5075834;28;20452;-77
2023/07/14 12:54:18;;;;;;;2.47;2.23;;;31.10;68.60;;;;;;5074644;28;20495;-78
2023/07/14 12:56:45;;;;;;;3.60;2.03;;;31.20;69.00;;;;;;5075455;28;20838;-78
2023/07/14 12:59:16;;;;;;;2.50;2.37;;;31.20;67.70;;;;;;5088933;28;20440;-79
2023/07/14 13:01:48;;;;;;;2.30;1.90;;;31.40;67.20;;;;;;5088423;28;20828;-78
2023/07/14 13:04:18;;;;;;;1.97;1.87;;;31.60;67.10;;;;;;5083037;28;20477;-80
2023/07/14 13:06:47;;;;;;;3.07;2.10;;;31.60;67.30;;;;;;5084879;28;20448;-78
2023/07/14 13:09:21;;;;;;;2.40;2.00;;;31.50;67.70;;;;;;5087613;28;20438;-76
2023/07/14 13:11:51;;;;;;;3.13;2.07;;;32.40;67.10;;;;;;5082729;28;20429;-77
2023/07/14 13:14:24;;;;;;;2.77;2.07;;;33.00;65.00;;;;;;5061399;28;20469;-79
2023/07/14 13:16:53;;;;;;;2.60;2.20;;;33.00;63.90;;;;;;5067233;28;20456;-77
2023/07/14 13:19:32;;;;;;;4.97;2.20;;;32.80;64.30;;;;;;5065236;28;20430;-78
2023/07/14 13:22:22;;;;;;;5.93;2.20;;;32.80;63.30;;;;;;5056953;28;20949;-78
2023/07/14 13:25:19;;;;;;;2.30;1.90;;;32.70;63.00;;;;;;5056514;28;20513;-77
2023/07/14 13:27:47;;;;;;;1.70;1.60;;;32.20;62.90;;;;;;5054014;28;20472;-77